Detalhes do Voo

Voltar

 DETALHES DO VÔO

Piloto: GLD424 Roberto R. Aeronave: TOLISSA321_V1P2 [CFMST & IAE] GOLD VIRTUAL 5 ANOS Distância: 525NM
Origem: SBGR Destino: SBDO Duração: 1.40
Validação: Validado Tipo: Charter Matrícula: D-ABIB
ZFW: 66377 Block Fuel/Init FOB 3,908/0 Combustível em Voo 3,667
Passageiros: 160 Carga: 0 Alternativo: SBCG
Hora da Decolagem: 1800 Velocidade de Cruzeiro: 450 Nível de Voo: FL360
Regra Visual: IFR ICAO da Aeronave: A321 Unidade de Peso: Kg
Data: 08/08/2020 Observação: Rede: IVAO
Acidentou?: Não Comentários do Validador: Pontuação do Voo 77.2497

 ROTA

ROTA EGITO UM415 EGEVA UZ58 LON DCT KABEG DCT
REMARKS OPR/GOLD VIRTUAL AIRLINES PER/C /RMK/FROMTNCM PIC GLD424/RMK/WWW.GOLDVIRTUAL.COM.BR

 PENALIDADES DO VOO

Para entender como cada item é pontuado, consulte as regras de avaliação.

Nenhuma penalidade registrada para este voo.

 ANÁLISE DO POUSO

Vento durante o pouso: 37º/8 kt Proa durante o pouso: 337
V/S do Pouso: -742.03 ft/min IAS do Pouso: 132.24 kt
Força G no pouso: 1.8 G Bank no pouso: -0.2
Pitch no Pouso 6.2 Flaps no Pouso 0
Nav Lights ON Landing Lights ON
Beacon Lights ON Strobe Lights ON

 MAPA DO VOO

 PERFIL VERTICAL DO VOO

 EVENTOS PRINCIPAIS DO VOO

DATAEVENTOIASALTITUDE
2020-08-08 18:13:34 INCORRECT ARRIVAL ICAO00
2020-08-08 18:13:34 SIM ACARS version 1.4.002446
2020-08-08 18:13:34 BOARDING02446
2020-08-08 18:13:34 FLAPS EXTENSION 50 % 02446
2020-08-08 18:13:34 STARTING ENGINE 1 02446
2020-08-08 18:13:34 STARTING ENGINE 2 02446
2020-08-08 18:14:22 TAXI TO THE RWY 62446
2020-08-08 18:16:41 ROLLING FOR TAKE OFF422450
2020-08-08 18:17:02 TAKE OFF1552450
2020-08-08 18:17:02 LANDING1552450
2020-08-08 18:17:07 TAKE OFF1742499
2020-08-08 18:17:07 GEAR UP1742502
2020-08-08 18:17:44 FLAPS EXTENSION 25 % 2044549
2020-08-08 18:18:10 FLAPS EXTENSION 0 % 2315161
2020-08-08 18:39:52 CRUISE25836344
2020-08-08 19:22:42 DESCEND25234592
2020-08-08 19:33:52 CRUISE25010204
2020-08-08 19:34:52 DESCEND2189679
2020-08-08 19:38:19 FLAPS EXTENSION 25 % 2175842
2020-08-08 19:40:50 FLAPS EXTENSION 50 % 2034050
2020-08-08 19:40:50 FLAPS EXTENSION 75 % 2034047
2020-08-08 19:40:58 GEAR DOWN1994004
2020-08-08 19:41:04 FLAPS EXTENSION 100 % 1923971
2020-08-08 19:43:39 LANDING1321496
2020-08-08 19:44:31 TAXI TO THE GATE201504
2020-08-08 19:46:35 FLAPS EXTENSION 75 % 41505
2020-08-08 19:46:35 FLAPS EXTENSION 50 % 41505
2020-08-08 19:46:35 FLAPS EXTENSION 25 % 41505
2020-08-08 19:46:36 FLAPS EXTENSION 50 % 41505
2020-08-08 19:46:36 FLAPS EXTENSION 25 % 41505
2020-08-08 19:46:36 FLAPS EXTENSION 0 % 41505
2020-08-08 19:46:41 STOPPING ENGINE 2 41505
2020-08-08 19:46:41 STOPPING ENGINE 1 41505
2020-08-08 19:46:45 NOT LANDED IN PLANNED ARRIVAL41505

 DADOS DO ACARS

DATA IAS GS ALTITUDE COMBUSTÍVEL USADO OAT FASE DO VOO
2020-08-08 18:14:34 11 14 2445 24 23 TAXI TO THE RWY
2020-08-08 18:15:34 0 0 2446 39 23 TAXI TO THE RWY
2020-08-08 18:16:34 25 22 2450 68 23 TAXI TO THE RWY
2020-08-08 18:17:34 198 206 4007 271 20 CLIMBING
2020-08-08 18:18:34 239 261 6205 401 15 CLIMBING
2020-08-08 18:19:34 239 274 9127 514 8 CLIMBING
2020-08-08 18:20:34 238 300 11687 619 2 CLIMBING
2020-08-08 18:21:34 267 337 13281 715 -1 CLIMBING
2020-08-08 18:22:34 305 387 14692 809 -4 CLIMBING
2020-08-08 18:23:34 305 400 17094 897 -10 CLIMBING
2020-08-08 18:24:34 305 403 19257 980 -15 CLIMBING
2020-08-08 18:25:34 305 405 21238 1058 -19 CLIMBING
2020-08-08 18:26:34 305 412 23014 1130 -24 CLIMBING
2020-08-08 18:27:34 306 418 24634 1200 -28 CLIMBING
2020-08-08 18:28:34 305 423 26109 1266 -31 CLIMBING
2020-08-08 18:29:34 305 427 27440 1331 -34 CLIMBING
2020-08-08 18:30:34 305 429 28576 1395 -37 CLIMBING
2020-08-08 18:31:34 298 423 29930 1456 -40 CLIMBING
2020-08-08 18:32:34 290 416 31185 1515 -43 CLIMBING
2020-08-08 18:33:34 283 410 32323 1572 -46 CLIMBING
2020-08-08 18:34:34 276 405 33342 1626 -49 CLIMBING
2020-08-08 18:35:34 271 401 34214 1680 -51 CLIMBING
2020-08-08 18:36:34 266 399 34918 1732 -53 CLIMBING
2020-08-08 18:37:34 262 397 35515 1783 -54 CLIMBING
2020-08-08 18:38:34 260 396 36002 1834 -55 CLIMBING
2020-08-08 18:39:34 258 396 36334 1882 -56 CLIMBING
2020-08-08 18:40:34 257 397 36347 1927 -56 CRUISE
2020-08-08 18:41:34 257 399 36344 1971 -56 CRUISE
2020-08-08 18:42:34 257 399 36347 2014 -56 CRUISE
2020-08-08 18:43:34 257 399 36347 2058 -56 CRUISE
2020-08-08 18:44:34 257 399 36347 2102 -56 CRUISE
2020-08-08 18:45:34 257 398 36347 2145 -56 CRUISE
2020-08-08 18:46:34 257 397 36347 2189 -56 CRUISE
2020-08-08 18:47:34 257 397 36347 2234 -56 CRUISE
2020-08-08 18:48:34 257 397 36347 2278 -56 CRUISE
2020-08-08 18:49:34 257 398 36325 2322 -56 CRUISE
2020-08-08 18:50:34 258 398 36296 2366 -56 CRUISE
2020-08-08 18:51:34 258 398 36293 2409 -56 CRUISE
2020-08-08 18:52:34 258 398 36293 2453 -56 CRUISE
2020-08-08 18:53:34 258 398 36293 2497 -56 CRUISE
2020-08-08 18:54:34 258 398 36294 2541 -56 CRUISE
2020-08-08 18:55:34 258 398 36293 2585 -56 CRUISE
2020-08-08 18:56:34 258 398 36293 2629 -56 CRUISE
2020-08-08 18:57:34 258 399 36293 2673 -56 CRUISE
2020-08-08 18:58:34 258 399 36292 2717 -56 CRUISE
2020-08-08 18:59:34 258 399 36293 2761 -56 CRUISE
2020-08-08 19:00:34 258 399 36293 2804 -56 CRUISE
2020-08-08 19:01:34 258 398 36293 2848 -56 CRUISE
2020-08-08 19:02:34 258 399 36293 2892 -56 CRUISE
2020-08-08 19:03:34 258 399 36293 2936 -56 CRUISE
2020-08-08 19:04:34 258 399 36293 2980 -56 CRUISE
2020-08-08 19:05:34 258 399 36293 3024 -56 CRUISE
2020-08-08 19:06:34 258 399 36288 3068 -56 CRUISE
2020-08-08 19:07:34 258 399 36293 3111 -56 CRUISE
2020-08-08 19:08:34 258 399 36293 3154 -56 CRUISE
2020-08-08 19:09:34 258 399 36293 3198 -56 CRUISE
2020-08-08 19:10:34 258 399 36293 3241 -56 CRUISE
2020-08-08 19:11:34 239 368 36283 3267 -56 CRUISE
2020-08-08 19:12:34 233 360 36292 3297 -56 CRUISE
2020-08-08 19:13:34 233 359 36284 3332 -56 CRUISE
2020-08-08 19:14:34 233 360 36271 3367 -56 CRUISE
2020-08-08 19:15:34 233 360 36261 3403 -56 CRUISE
2020-08-08 19:16:34 233 360 36265 3437 -56 CRUISE
2020-08-08 19:17:34 233 361 36265 3472 -56 CRUISE
2020-08-08 19:18:34 233 362 36265 3507 -56 CRUISE
2020-08-08 19:19:34 233 362 36265 3542 -56 CRUISE
2020-08-08 19:20:34 232 362 36264 3577 -56 CRUISE
2020-08-08 19:21:34 233 362 36265 3612 -56 CRUISE
2020-08-08 19:22:34 245 376 35143 3637 -53 CRUISE
2020-08-08 19:23:34 282 411 31077 3640 -43 DESCEND
2020-08-08 19:24:34 297 417 27727 3643 -34 DESCEND
2020-08-08 19:25:34 294 402 25442 3646 -28 DESCEND
2020-08-08 19:26:34 290 388 23324 3649 -23 DESCEND
2020-08-08 19:27:34 286 376 21274 3653 -17 DESCEND
2020-08-08 19:28:34 284 365 19257 3656 -12 DESCEND
2020-08-08 19:29:34 281 355 17319 3660 -7 DESCEND
2020-08-08 19:30:34 280 348 15358 3664 -3 DESCEND
2020-08-08 19:31:34 279 341 13438 3668 1 DESCEND
2020-08-08 19:32:34 279 334 11558 3673 6 DESCEND
2020-08-08 19:33:34 266 311 10216 3677 9 DESCEND
2020-08-08 19:34:34 219 257 10035 3682 10 CRUISE
2020-08-08 19:35:34 217 249 8919 3690 12 DESCEND
2020-08-08 19:36:34 217 245 7794 3699 15 DESCEND
2020-08-08 19:37:34 217 240 6676 3708 18 DESCEND
2020-08-08 19:38:34 216 236 5563 3717 20 DESCEND
2020-08-08 19:39:34 213 230 4468 3725 23 DESCEND
2020-08-08 19:40:34 203 216 4151 3754 23 DESCEND
2020-08-08 19:41:34 158 164 3470 3770 25 DESCEND
2020-08-08 19:42:34 136 136 2059 3783 28 DESCEND
2020-08-08 19:43:34 138 137 1585 3848 29 DESCEND
2020-08-08 19:44:34 19 14 1505 3877 30 TAXI TO THE GATE
2020-08-08 19:45:34 3 0 1504 3892 30 TAXI TO THE GATE
2020-08-08 19:46:34 3 0 1504 3907 30 TAXI TO THE GATE